createdAt,value
2023-02-25T00:01:09.364Z,98689.53
2023-02-25T00:03:36.599Z,98693.66
2023-02-25T00:06:05.145Z,98690.47
2023-02-25T00:08:32.443Z,98688.66
2023-02-25T00:11:07.153Z,98694.63
2023-02-25T00:13:34.222Z,98693.78
2023-02-25T00:16:03.769Z,98687.13
2023-02-25T00:18:31.106Z,98685.78
2023-02-25T00:20:59.062Z,98680.28
2023-02-25T00:23:26.338Z,98679.13
2023-02-25T00:26:07.032Z,98680.16
2023-02-25T00:28:34.628Z,98668.75
2023-02-25T00:31:10.785Z,98666.59
2023-02-25T00:33:42.117Z,98670.28
2023-02-25T00:36:11.911Z,98654.50
2023-02-25T00:38:39.600Z,98650.16
2023-02-25T00:41:15.178Z,98652.81
2023-02-25T00:43:44.985Z,98649.63
2023-02-25T00:46:11.687Z,98640.91
2023-02-25T00:48:38.934Z,98640.91
2023-02-25T00:51:29.623Z,98625.69
2023-02-25T00:53:57.369Z,98624.84
2023-02-25T00:56:26.066Z,98616.78
2023-02-25T00:58:53.975Z,98618.44
2023-02-25T01:01:20.553Z,98606.06
2023-02-25T01:03:48.428Z,98603.88
2023-02-25T01:06:15.218Z,98596.47
2023-02-25T01:08:42.450Z,98597.81
2023-02-25T01:11:14.063Z,98585.91
2023-02-25T01:13:41.055Z,98588.69
2023-02-25T01:16:16.284Z,98581.00
2023-02-25T01:18:44.002Z,98576.47
2023-02-25T01:21:26.563Z,98570.47
2023-02-25T01:23:59.222Z,98560.56
2023-02-25T01:26:27.847Z,98555.22
2023-02-25T01:28:55.856Z,98550.72
2023-02-25T01:31:29.614Z,98545.00
2023-02-25T01:34:01.487Z,98545.66
2023-02-25T01:36:29.859Z,98549.06
2023-02-25T01:38:56.524Z,98536.91
2023-02-25T01:41:25.093Z,98536.03
2023-02-25T01:44:17.164Z,98529.03
2023-02-25T01:46:46.147Z,98530.69
2023-02-25T01:49:25.330Z,98524.03
2023-02-25T01:51:56.388Z,98515.00
2023-02-25T01:54:22.941Z,98516.16
2023-02-25T01:56:54.277Z,98523.31
2023-02-25T01:59:24.637Z,98523.88
2023-02-25T02:01:51.778Z,98514.31
2023-02-25T02:04:19.893Z,98514.63
2023-02-25T02:06:49.320Z,98512.44
2023-02-25T02:09:19.621Z,98510.44
2023-02-25T02:11:46.250Z,98510.22
2023-02-25T02:14:29.402Z,98508.69
2023-02-25T02:17:01.559Z,98498.63
2023-02-25T02:19:52.232Z,98507.09
2023-02-25T02:22:30.994Z,98494.75
2023-02-25T02:25:12.878Z,98491.06
2023-02-25T02:28:21.108Z,98480.06
2023-02-25T02:30:50.419Z,98479.53
2023-02-25T02:33:39.346Z,98474.84
2023-02-25T02:36:12.693Z,98460.75
2023-02-25T02:38:50.365Z,98464.09
2023-02-25T02:41:35.465Z,98468.41
2023-02-25T02:44:14.151Z,98466.38
2023-02-25T02:46:48.733Z,98470.34
2023-02-25T02:49:23.707Z,98465.47
2023-02-25T02:51:58.825Z,98463.59
2023-02-25T02:54:31.312Z,98459.03
2023-02-25T02:56:59.989Z,98456.69
2023-02-25T02:59:43.177Z,98461.19
2023-02-25T03:02:16.876Z,98468.53
2023-02-25T03:04:47.579Z,98466.53
2023-02-25T03:07:15.770Z,98477.94
2023-02-25T03:10:05.000Z,98483.78
2023-02-25T03:12:31.661Z,98486.63
2023-02-25T03:14:58.241Z,98492.09
2023-02-25T03:17:33.140Z,98487.75
2023-02-25T03:20:08.106Z,98484.28
2023-02-25T03:22:41.499Z,98481.91
2023-02-25T03:25:23.796Z,98476.84
2023-02-25T03:27:54.996Z,98483.91
2023-02-25T03:30:45.732Z,98480.91
2023-02-25T03:33:33.421Z,98484.97
2023-02-25T03:36:05.714Z,98485.69
2023-02-25T03:38:33.643Z,98483.00
2023-02-25T03:41:04.146Z,98481.31
2023-02-25T03:43:39.375Z,98476.44
2023-02-25T03:46:07.098Z,98480.41
2023-02-25T03:48:36.957Z,98482.56
2023-02-25T03:51:05.538Z,98484.56
2023-02-25T03:53:35.271Z,98480.22
2023-02-25T03:56:07.933Z,98483.06
2023-02-25T03:58:36.235Z,98484.72
2023-02-25T04:01:07.699Z,98485.72
2023-02-25T04:03:34.266Z,98481.06
2023-02-25T04:06:00.838Z,98474.72
2023-02-25T04:08:27.539Z,98470.22
2023-02-25T04:10:54.088Z,98470.22
2023-02-25T04:13:20.931Z,98468.53
2023-02-25T04:15:49.577Z,98473.41
2023-02-25T04:18:16.741Z,98481.59
2023-02-25T04:20:43.331Z,98489.63
2023-02-25T04:23:14.880Z,98481.59
2023-02-25T04:25:41.704Z,98486.25
2023-02-25T04:28:08.379Z,98487.09
2023-02-25T04:30:35.018Z,98488.09
2023-02-25T04:33:02.367Z,98493.59
2023-02-25T04:35:28.912Z,98491.91
2023-02-25T04:37:55.479Z,98495.41
2023-02-25T04:40:24.119Z,98505.28
2023-02-25T04:42:51.182Z,98517.63
2023-02-25T04:45:18.032Z,98530.84
2023-02-25T04:47:44.661Z,98516.78
2023-02-25T04:50:12.303Z,98524.00
2023-02-25T04:52:38.952Z,98525.81
2023-02-25T04:55:06.020Z,98526.66
2023-02-25T04:57:32.572Z,98533.53
2023-02-25T04:59:59.122Z,98535.34
2023-02-25T05:02:25.659Z,98544.69
2023-02-25T05:04:52.275Z,98548.66
2023-02-25T05:07:18.902Z,98542.03
2023-02-25T05:09:45.469Z,98548.75
2023-02-25T05:12:12.132Z,98537.75
2023-02-25T05:14:38.776Z,98548.69
2023-02-25T05:17:05.376Z,98557.41
2023-02-25T05:19:31.956Z,98562.44
2023-02-25T05:21:58.507Z,98564.25
2023-02-25T05:24:25.106Z,98567.28
2023-02-25T05:26:52.182Z,98570.81
2023-02-25T05:29:18.879Z,98579.34
2023-02-25T05:31:45.716Z,98582.19
2023-02-25T05:34:12.466Z,98594.38
2023-02-25T05:36:40.549Z,98590.50
2023-02-25T05:39:07.174Z,98593.50
2023-02-25T05:41:33.732Z,98584.81
2023-02-25T05:44:00.266Z,98574.25
2023-02-25T05:46:27.443Z,98582.94
2023-02-25T05:48:54.454Z,98587.94
2023-02-25T05:51:23.461Z,98584.44
2023-02-25T05:53:52.081Z,98591.94
2023-02-25T05:56:28.366Z,98592.63
2023-02-25T05:58:56.696Z,98596.16
2023-02-25T06:01:27.727Z,98608.88
2023-02-25T06:03:58.418Z,98606.88
2023-02-25T06:06:27.817Z,98610.19
2023-02-25T06:08:54.434Z,98618.38
2023-02-25T06:11:23.904Z,98619.22
2023-02-25T06:13:52.834Z,98640.00
2023-02-25T06:16:19.757Z,98649.19
2023-02-25T06:18:48.224Z,98644.00
2023-02-25T06:21:15.643Z,98650.97
2023-02-25T06:23:43.655Z,98647.56
2023-02-25T06:26:12.865Z,98632.50
2023-02-25T06:28:39.712Z,98652.78
2023-02-25T06:31:10.981Z,98657.22
2023-02-25T06:33:39.251Z,98644.50
2023-02-25T06:36:06.830Z,98653.28
2023-02-25T06:38:35.028Z,98651.59
2023-02-25T06:41:10.025Z,98668.41
2023-02-25T06:43:36.851Z,98660.88
2023-02-25T06:46:07.845Z,98678.19
2023-02-25T06:48:34.458Z,98680.19
2023-02-25T06:51:02.011Z,98689.50
2023-02-25T06:53:29.687Z,98681.09
2023-02-25T06:55:59.008Z,98692.94
2023-02-25T06:58:25.586Z,98703.41
2023-02-25T07:00:52.225Z,98707.38
2023-02-25T07:03:18.892Z,98712.72
2023-02-25T07:05:45.504Z,98717.53
2023-02-25T07:08:12.137Z,98723.56
2023-02-25T07:10:40.568Z,98729.03
2023-02-25T07:13:09.232Z,98731.63
2023-02-25T07:15:36.103Z,98736.13
2023-02-25T07:18:03.716Z,98734.75
2023-02-25T07:20:30.659Z,98744.75
2023-02-25T07:22:57.266Z,98743.22
2023-02-25T07:25:24.446Z,98749.41
2023-02-25T07:27:51.167Z,98737.31
2023-02-25T07:30:17.928Z,98729.72
2023-02-25T07:32:44.679Z,98719.56
2023-02-25T07:35:12.608Z,98727.28
2023-02-25T07:37:39.941Z,98728.81
2023-02-25T07:40:14.344Z,98718.53
2023-02-25T07:42:41.664Z,98719.06
2023-02-25T07:45:09.917Z,98732.09
2023-02-25T07:47:37.770Z,98751.28
2023-02-25T07:50:06.081Z,98752.69
2023-02-25T07:52:32.800Z,98745.28
2023-02-25T07:54:59.402Z,98733.38
2023-02-25T07:57:26.122Z,98760.94
2023-02-25T07:59:52.687Z,98755.19
2023-02-25T08:02:19.361Z,98761.38
2023-02-25T08:04:46.014Z,98766.03
2023-02-25T08:07:12.834Z,98757.03
2023-02-25T08:09:39.502Z,98760.53
2023-02-25T08:12:06.151Z,98759.56
2023-02-25T08:14:32.702Z,98754.06
2023-02-25T08:17:01.911Z,98748.56
2023-02-25T08:19:29.159Z,98763.47
2023-02-25T08:21:55.765Z,98751.97
2023-02-25T08:24:24.211Z,98741.97
2023-02-25T08:26:51.296Z,98769.81
2023-02-25T08:29:18.264Z,98767.00
2023-02-25T08:31:46.949Z,98770.94
2023-02-25T08:34:13.783Z,98787.25
2023-02-25T08:36:40.394Z,98789.09
2023-02-25T08:39:07.054Z,98806.13
2023-02-25T08:41:33.689Z,98795.56
2023-02-25T08:44:01.237Z,98786.88
2023-02-25T08:46:30.250Z,98798.25
2023-02-25T08:48:57.667Z,98790.22
2023-02-25T08:51:34.312Z,98775.06
2023-02-25T08:54:11.949Z,98780.53
2023-02-25T08:56:44.366Z,98784.88
2023-02-25T08:59:15.294Z,98800.91
2023-02-25T09:01:45.279Z,98794.88
2023-02-25T09:04:17.554Z,98794.28
2023-02-25T09:06:47.387Z,98787.50
2023-02-25T09:09:18.247Z,98779.34
2023-02-25T09:11:46.933Z,98775.72
2023-02-25T09:14:14.216Z,98780.06
2023-02-25T09:16:41.067Z,98787.09
2023-02-25T09:19:08.043Z,98796.94
2023-02-25T09:21:36.185Z,98801.84
2023-02-25T09:24:02.914Z,98806.78
2023-02-25T09:26:29.460Z,98815.78
2023-02-25T09:28:56.045Z,98849.66
2023-02-25T09:31:23.209Z,98839.94
2023-02-25T09:33:49.953Z,98807.88
2023-02-25T09:36:19.842Z,98808.06
2023-02-25T09:38:48.837Z,98803.28
2023-02-25T09:41:32.612Z,98786.25
2023-02-25T09:44:15.626Z,98772.91
2023-02-25T09:46:56.012Z,98783.28
2023-02-25T09:49:44.090Z,98796.50
2023-02-25T09:52:19.540Z,98820.13
2023-02-25T09:54:49.010Z,98820.53
2023-02-25T09:57:21.621Z,98809.13
2023-02-25T09:59:50.080Z,98802.34
2023-02-25T10:02:27.951Z,98804.25
2023-02-25T10:05:21.655Z,98813.63
2023-02-25T10:08:18.944Z,98800.56
2023-02-25T10:10:59.408Z,98796.19
2023-02-25T10:13:41.918Z,98804.47
2023-02-25T10:16:36.256Z,98794.81
2023-02-25T10:19:36.477Z,98811.19
2023-02-25T10:22:21.800Z,98825.97
2023-02-25T10:24:50.392Z,98827.88
2023-02-25T10:27:36.828Z,98825.97
2023-02-25T10:30:33.040Z,98824.78
2023-02-25T10:33:05.752Z,98813.28
2023-02-25T10:35:39.249Z,98816.44
2023-02-25T10:38:05.929Z,98823.59
2023-02-25T10:40:32.547Z,98803.06
2023-02-25T10:43:03.054Z,98813.75
2023-02-25T10:45:31.662Z,98799.06
2023-02-25T10:48:17.601Z,98804.94
2023-02-25T10:51:13.941Z,98811.47
2023-02-25T10:54:01.141Z,98801.97
2023-02-25T10:56:33.466Z,98806.75
2023-02-25T10:59:22.758Z,98804.25
2023-02-25T11:01:49.905Z,98829.38
2023-02-25T11:04:20.286Z,98808.66
2023-02-25T11:06:47.754Z,98819.66
2023-02-25T11:09:20.268Z,98812.03
2023-02-25T11:12:08.583Z,98809.47
2023-02-25T11:14:40.062Z,98800.78
2023-02-25T11:17:12.152Z,98811.56
2023-02-25T11:19:42.129Z,98815.91
2023-02-25T11:22:37.436Z,98754.38
2023-02-25T11:25:07.250Z,98740.03
2023-02-25T11:27:39.315Z,98742.00
2023-02-25T11:30:24.812Z,98746.16
2023-02-25T11:32:57.935Z,98737.50
2023-02-25T11:35:31.410Z,98760.00
2023-02-25T11:37:59.300Z,98749.00
2023-02-25T11:40:32.512Z,98737.13
2023-02-25T11:43:06.374Z,98767.19
2023-02-25T11:45:46.045Z,98777.88
2023-02-25T11:48:48.531Z,98775.44
2023-02-25T11:51:48.189Z,98770.28
2023-02-25T11:54:36.064Z,98789.94
2023-02-25T11:57:30.590Z,98781.59
2023-02-25T12:00:19.357Z,98760.38
2023-02-25T12:03:30.692Z,98774.97
2023-02-25T12:06:24.298Z,98765.38
2023-02-25T12:09:15.224Z,98751.56
2023-02-25T12:12:06.545Z,98751.69
2023-02-25T12:14:41.919Z,98735.41
2023-02-25T12:17:29.628Z,98743.84
2023-02-25T12:20:26.931Z,98737.19
2023-02-25T12:23:21.452Z,98736.41
2023-02-25T12:26:01.233Z,98732.53
2023-02-25T12:29:01.376Z,98740.88
2023-02-25T12:31:46.785Z,98725.63
2023-02-25T12:35:10.628Z,98714.81
2023-02-25T12:37:50.100Z,98719.25
2023-02-25T12:40:22.264Z,98718.75
2023-02-25T12:43:03.863Z,98731.78
2023-02-25T12:45:51.959Z,98712.75
2023-02-25T12:48:34.130Z,98707.16
2023-02-25T12:51:15.680Z,98720.16
2023-02-25T12:54:03.242Z,98707.66
2023-02-25T12:57:07.348Z,98706.34
2023-02-25T12:59:51.863Z,98712.94
2023-02-25T13:02:28.995Z,98714.13
2023-02-25T13:05:01.524Z,98711.16
2023-02-25T13:07:40.313Z,98710.81
2023-02-25T13:10:38.773Z,98716.66
2023-02-25T13:13:24.069Z,98725.78
2023-02-25T13:16:18.654Z,98720.72
2023-02-25T13:19:34.982Z,98719.91
2023-02-25T13:22:27.419Z,98733.38
2023-02-25T13:25:12.493Z,98723.16
2023-02-25T13:27:57.317Z,98730.47
2023-02-25T13:30:34.344Z,98726.81
2023-02-25T13:33:14.168Z,98727.34
2023-02-25T13:36:08.706Z,98717.53
2023-02-25T13:38:47.320Z,98716.13
2023-02-25T13:41:33.155Z,98708.44
2023-02-25T13:44:08.577Z,98720.06
2023-02-25T13:46:53.295Z,98717.00
2023-02-25T13:49:35.009Z,98703.59
2023-02-25T13:52:59.935Z,98743.13
2023-02-25T13:55:40.216Z,98755.47
2023-02-25T13:58:36.140Z,98768.59
2023-02-25T14:01:22.922Z,98765.81
2023-02-25T14:04:05.944Z,98784.03
2023-02-25T14:06:47.746Z,98798.44
2023-02-25T14:09:34.528Z,98794.56
2023-02-25T14:12:14.867Z,98803.03
2023-02-25T14:15:18.167Z,98807.25
2023-02-25T14:18:08.822Z,98820.78
2023-02-25T14:21:03.896Z,98793.69
2023-02-25T14:23:55.981Z,98786.25
2023-02-25T14:26:33.598Z,98799.38
2023-02-25T14:29:26.731Z,98800.03
2023-02-25T14:32:01.664Z,98783.81
2023-02-25T14:34:59.511Z,98796.38
2023-02-25T14:37:31.763Z,98800.22
2023-02-25T14:40:13.613Z,98790.41
2023-02-25T14:43:03.375Z,98806.72
2023-02-25T14:45:51.081Z,98808.72
2023-02-25T14:48:26.211Z,98822.59
2023-02-25T14:51:11.671Z,98812.41
2023-02-25T14:54:25.569Z,98826.84
2023-02-25T14:56:54.771Z,98827.06
2023-02-25T14:59:45.832Z,98837.66
2023-02-25T15:02:39.917Z,98836.44
2023-02-25T15:05:24.731Z,98830.44
2023-02-25T15:08:08.064Z,98832.81
2023-02-25T15:10:53.445Z,98824.50
2023-02-25T15:13:47.323Z,98822.19
2023-02-25T15:16:22.967Z,98831.47
2023-02-25T15:19:14.290Z,98827.59
2023-02-25T15:21:44.962Z,98847.72
2023-02-25T15:24:39.407Z,98850.53
2023-02-25T15:27:35.215Z,98848.03
2023-02-25T15:30:11.919Z,98849.34
2023-02-25T15:32:59.627Z,98854.94
2023-02-25T15:35:35.250Z,98855.13
2023-02-25T15:38:08.989Z,98858.81
2023-02-25T15:40:35.492Z,98862.41
2023-02-25T15:43:26.393Z,98867.81
2023-02-25T15:46:08.127Z,98864.97
2023-02-25T15:48:38.399Z,98870.47
2023-02-25T15:51:10.713Z,98871.28
2023-02-25T15:53:41.074Z,98878.63
2023-02-25T15:56:08.533Z,98880.53
2023-02-25T15:58:35.054Z,98891.50
2023-02-25T16:01:05.167Z,98882.25
2023-02-25T16:03:31.757Z,98893.25
2023-02-25T16:06:22.232Z,98913.78
2023-02-25T16:09:01.190Z,98909.25
2023-02-25T16:11:44.285Z,98914.31
2023-02-25T16:14:28.582Z,98910.09
2023-02-25T16:17:09.189Z,98907.75
2023-02-25T16:19:39.414Z,98907.72
2023-02-25T16:22:38.886Z,98904.84
2023-02-25T16:25:18.877Z,98904.63
2023-02-25T16:27:54.380Z,98897.56
2023-02-25T16:30:44.748Z,98901.22
2023-02-25T16:33:35.373Z,98907.41
2023-02-25T16:36:29.584Z,98915.44
2023-02-25T16:39:14.347Z,98913.06
2023-02-25T16:41:41.256Z,98911.78
2023-02-25T16:44:08.540Z,98905.00
2023-02-25T16:46:39.313Z,98913.34
2023-02-25T16:49:18.114Z,98921.72
2023-02-25T16:51:45.342Z,98924.31
2023-02-25T16:54:24.813Z,98938.19
2023-02-25T16:56:58.055Z,98948.56
2023-02-25T16:59:24.831Z,98957.94
2023-02-25T17:02:02.577Z,98954.03
2023-02-25T17:04:33.128Z,98959.13
2023-02-25T17:07:13.605Z,98959.22
2023-02-25T17:09:56.724Z,98967.63
2023-02-25T17:12:40.827Z,98966.03
2023-02-25T17:15:19.321Z,98963.09
2023-02-25T17:17:48.869Z,98969.91
2023-02-25T17:20:22.886Z,98988.41
2023-02-25T17:22:50.386Z,99003.63
2023-02-25T17:25:18.314Z,99007.16
2023-02-25T17:27:48.931Z,99033.50
2023-02-25T17:30:34.859Z,99035.97
2023-02-25T17:33:01.959Z,99019.91
2023-02-25T17:35:29.348Z,99014.69
2023-02-25T17:37:57.192Z,98995.09
2023-02-25T17:40:28.912Z,98956.41
2023-02-25T17:43:17.946Z,99000.25
2023-02-25T17:45:51.763Z,99021.97
2023-02-25T17:48:22.431Z,99013.06
2023-02-25T17:51:10.867Z,99016.72
2023-02-25T17:54:18.270Z,99025.19
2023-02-25T17:56:54.596Z,99008.13
2023-02-25T17:59:41.640Z,98997.63
2023-02-25T18:02:37.912Z,98999.34
2023-02-25T18:05:11.128Z,99009.81
2023-02-25T18:07:58.589Z,99026.84
2023-02-25T18:10:31.414Z,99033.59
2023-02-25T18:13:03.379Z,99033.59
2023-02-25T18:15:33.222Z,99037.25
2023-02-25T18:18:07.348Z,99032.50
2023-02-25T18:20:42.304Z,99037.56
2023-02-25T18:23:21.129Z,99032.66
2023-02-25T18:26:09.268Z,99047.16
2023-02-25T18:28:35.975Z,99049.97
2023-02-25T18:31:02.664Z,99036.31
2023-02-25T18:33:29.270Z,98989.59
2023-02-25T18:35:57.537Z,98977.38
2023-02-25T18:38:26.530Z,99007.34
2023-02-25T18:40:54.344Z,99017.50
2023-02-25T18:43:28.925Z,99024.56
2023-02-25T18:45:55.448Z,99043.84
2023-02-25T18:48:21.969Z,99049.88
2023-02-25T18:50:48.697Z,99056.94
2023-02-25T18:53:18.136Z,99078.59
2023-02-25T18:55:44.703Z,99087.59
2023-02-25T18:58:16.572Z,99076.91
2023-02-25T19:00:46.174Z,99081.56
2023-02-25T19:03:21.932Z,99076.22
2023-02-25T19:05:48.537Z,99081.69
2023-02-25T19:08:17.533Z,99101.63
2023-02-25T19:10:44.591Z,99105.03
2023-02-25T19:13:24.976Z,99099.97
2023-02-25T19:15:51.584Z,99109.09
2023-02-25T19:18:18.392Z,99114.59
2023-02-25T19:20:45.095Z,99106.16
2023-02-25T19:23:13.890Z,99107.53
2023-02-25T19:25:41.855Z,99107.28
2023-02-25T19:28:08.980Z,99104.44
2023-02-25T19:30:39.824Z,99093.06
2023-02-25T19:33:08.228Z,99083.78
2023-02-25T19:35:37.444Z,99092.19
2023-02-25T19:38:05.998Z,99095.84
2023-02-25T19:40:33.350Z,99090.06
2023-02-25T19:42:59.925Z,99088.38
2023-02-25T19:45:27.635Z,99097.94
2023-02-25T19:47:55.122Z,99091.72
2023-02-25T19:50:24.790Z,99086.25
2023-02-25T19:52:53.319Z,99074.16
2023-02-25T19:55:20.365Z,99055.03
2023-02-25T19:57:47.273Z,99056.16
2023-02-25T20:00:19.892Z,99065.44
2023-02-25T20:02:46.886Z,99061.06
2023-02-25T20:05:14.619Z,99073.72
2023-02-25T20:07:42.186Z,99085.50
2023-02-25T20:10:11.054Z,99096.19
2023-02-25T20:12:39.323Z,99104.31
2023-02-25T20:15:07.277Z,99099.69
2023-02-25T20:17:36.756Z,99100.81
2023-02-25T20:20:04.311Z,99104.03
2023-02-25T20:22:31.007Z,99104.59
2023-02-25T20:24:57.571Z,99104.41
2023-02-25T20:27:24.436Z,99095.25
2023-02-25T20:29:50.974Z,99093.84
2023-02-25T20:32:17.792Z,99104.09
2023-02-25T20:34:44.581Z,99109.22
2023-02-25T20:37:23.240Z,99106.00
2023-02-25T20:39:55.107Z,99097.81
2023-02-25T20:42:24.449Z,99092.03
2023-02-25T20:44:52.319Z,99094.69
2023-02-25T20:47:27.240Z,99115.88
2023-02-25T20:49:55.411Z,99120.50
2023-02-25T20:52:22.544Z,99106.34
2023-02-25T20:54:52.515Z,99112.63
2023-02-25T20:57:21.307Z,99119.81
2023-02-25T20:59:48.613Z,99117.78
2023-02-25T21:02:16.780Z,99127.53
2023-02-25T21:04:44.232Z,99140.16
2023-02-25T21:07:11.151Z,99138.84
2023-02-25T21:09:37.760Z,99152.34
2023-02-25T21:12:04.979Z,99156.09
2023-02-25T21:14:31.563Z,99145.22
2023-02-25T21:16:58.112Z,99141.84
2023-02-25T21:19:28.124Z,99141.97
2023-02-25T21:21:56.149Z,99146.47
2023-02-25T21:24:23.048Z,99133.41
2023-02-25T21:26:49.780Z,99136.06
2023-02-25T21:29:16.544Z,99139.22
2023-02-25T21:31:44.046Z,99155.94
2023-02-25T21:34:13.085Z,99141.31
2023-02-25T21:36:41.032Z,99124.34
2023-02-25T21:39:09.359Z,99129.81
2023-02-25T21:41:38.281Z,99149.44
2023-02-25T21:44:05.076Z,99161.78
2023-02-25T21:46:31.753Z,99186.03
2023-02-25T21:48:59.560Z,99179.13
2023-02-25T21:51:28.302Z,99174.19
2023-02-25T21:54:00.332Z,99177.44
2023-02-25T21:56:28.128Z,99182.25
2023-02-25T21:58:56.893Z,99170.81
2023-02-25T22:01:26.175Z,99159.34
2023-02-25T22:03:53.244Z,99153.25
2023-02-25T22:06:23.725Z,99165.19
2023-02-25T22:08:50.976Z,99167.19
2023-02-25T22:11:21.083Z,99167.44
2023-02-25T22:13:48.419Z,99162.34
2023-02-25T22:16:15.727Z,99161.34
2023-02-25T22:18:42.961Z,99146.91
2023-02-25T22:21:16.772Z,99149.22
2023-02-25T22:23:43.897Z,99157.19
2023-02-25T22:26:13.244Z,99138.41
2023-02-25T22:28:42.977Z,99128.72
2023-02-25T22:31:12.138Z,99143.72
2023-02-25T22:33:39.774Z,99134.03
2023-02-25T22:36:07.885Z,99140.75
2023-02-25T22:38:40.747Z,99152.97
2023-02-25T22:41:13.101Z,99169.22
2023-02-25T22:43:39.967Z,99167.78
2023-02-25T22:46:13.010Z,99177.19
2023-02-25T22:48:41.024Z,99166.41
2023-02-25T22:51:09.431Z,99149.13
2023-02-25T22:53:37.545Z,99133.00
2023-02-25T22:56:06.843Z,99136.66
2023-02-25T22:58:33.674Z,99138.03
2023-02-25T23:01:00.425Z,99144.69
2023-02-25T23:03:27.014Z,99147.75
2023-02-25T23:05:54.751Z,99121.09
2023-02-25T23:08:22.826Z,99144.09
2023-02-25T23:10:49.853Z,99160.34
2023-02-25T23:13:16.559Z,99145.72
2023-02-25T23:15:47.466Z,99146.81
2023-02-25T23:18:15.394Z,99157.47
2023-02-25T23:20:42.584Z,99157.47
2023-02-25T23:23:09.634Z,99138.34
2023-02-25T23:25:39.449Z,99134.84
2023-02-25T23:28:07.860Z,99153.63
2023-02-25T23:30:37.864Z,99152.41
2023-02-25T23:33:05.163Z,99172.97
2023-02-25T23:35:32.823Z,99165.13
2023-02-25T23:38:01.278Z,99147.94
2023-02-25T23:40:28.943Z,99151.59
2023-02-25T23:42:56.097Z,99146.75
2023-02-25T23:45:22.995Z,99164.69
2023-02-25T23:47:49.707Z,99170.50
2023-02-25T23:50:17.719Z,99177.75
2023-02-25T23:52:46.241Z,99177.53
2023-02-25T23:55:15.229Z,99200.03
2023-02-25T23:57:42.112Z,99205.13
